Thursday, August 25, 2016
21:59 UTC
  |  Log In   |  Register Free
Airport Search:

Powell Municipal Airport
(KPOY)

Powell Municipal Airport Diagram
No Airport Diagram Available

FAA data valid effective Jul 21 2016 - Sep 15 2016 (unless otherwise noted).

 
 
 
 
 
 
 
 
 
 
 
 
 
 
Current Aviation Weather for KPOY

Weather Summary


The most recent METAR observation for POY was updated at: 12:55 UTC
METAR for POY is not available. Closest METAR is for
METAR

METAR KPOY 252135Z 00000KT 10SM SCT055 18/00 A3021 RMK AO2

METAR KPOY 252115Z 12007KT 084V144 10SM BKN055 19/00 A3021 RMK AO2

METAR KPOY 252055Z 08008KT 10SM VCTS BKN055 19/00 A3022 RMK AO2 LTG DSNT S

METAR KPOY 252035Z 04003KT 10SM BKN055 17/00 A3023 RMK AO2 LTG DSNT S

METAR KPOY 252015Z 13006KT 10SM SCT055 18/00 A3024 RMK AO2

METAR KPOY 251955Z 02004KT 10SM SCT050 18/00 A3024 RMK AO2

METAR KPOY 251935Z 02005KT 10SM SCT050 18/00 A3025 RMK AO2

METAR KPOY 251915Z 01005KT 10SM CLR 17/00 A3026 RMK AO2

METAR KCOD 252135Z 01007KT 10SM OVC060 17/04 A3021 RMK AO1 LTG DSNT S

METAR KU68 252135Z 00000KT 10SM CLR 20/01 A3018 RMK AO2

TAF for POY is not available.
TAF

KCOD - TAF KCOD 251720Z 2518/2618 12003KT P6SM SCT040 BKN050

KCOD - FM252300 VRB06KT P6SM VCSH SCT035 BKN050

KCOD - FM260500 VRB05KT P6SM BKN060 AMD LTD TO CLD VIS AND WIND =

GlobalAir.com is loading additional information.
 Current Weather at POY
64.0 F° (18.0 C°)

North winds at 4.6 mph
Pressure:
30.24 in
Humidity:
30%
Wind:
North at 4.6 mph
Dew Point:
32.0 F° (0.0 C°)
Visibility:
10.00 mi
POY NOAA Radar




Find All Airport Services Find A Hotel Find A Rental Car Find A Golf Course Find A Restaurant $100 Hamburger



Airport Weather Forecast for KPOY

Translated METAR for KPOY (2135 UTC)
METAR:
KPOY 252135Z AUTO Powell Muni., Powell, WY (KPOY). Aug 25, 2135Z, Automated. Wind is Calm, 10 statute miles visibility, Scattered Clouds at 5,500 feet, Temperature 18°C, Dewpoint 0°C, Altimeter is 30.21. Remarks: automated station with precipitation discriminator
Conditions at:
KPOY (Powell Muni, WY) observed 2135 UTC 25 August 2016
Temperature:
64.0 F° (18.0 C°)
Dewpoint:
not reported - refer to area weather report
Pressure:
30.24 Hg
Winds:
not reported
Visibility:
10.00
Ceiling:
at least 12,000 feet AGL
Clouds:
not reported - refer to area weather report
Remarks:
site is un-manned

Translated TAF for TAF for POY is not available. Refer to local area forecast.
FBO's on the Field
FBO Company Facility Photos Services Transportation Aviation Fuel Prices: Prices include tax
Catering Weather Repair Courtesy Rental Type 100LL JetA JetA+ MOGAS 8087
 
City of Powell

This FBO has not yet been rated
FS:Independent
Last Updated: Jul-26
Login to update fuel prices
SS:
Contact City of PowellMore FBO Information
 
Add another FBO Facility Photos Catering Weather Repair Courtesy Rental Type 100LL JetA JetA+ MOGAS 8087
Services Transportation Aviation Fuel Prices: Prices include tax


model-print
model-print
model-print
model-print